Pagrindinis puslapis
METAR-TAF:

METAR-TAF

Oro uostai :

Elis Springsas, Australija

platuma: 23-48S, ilguma: 133-53E, Aukštis: 545 m

Dabartinis oras

Ataskaita buvo paskelbta 16 minutes, ne 02:00 UTC
Vėjas 11 kt iš Rytų
Temperatūra 26°C
Drėgmė 26%
Slėgis 1022 hPa
Matomumas 10 km arba daugiau
nėra debesų žemiau 1500 m ir nėra kamuolinių lietaus debesų

METAR: YBAS 170200Z 10011KT CAVOK 26/05 Q1022

Laikas: 11:46 (02:16 UTC)

Prognozė

Ataskaita buvo paskelbta 3 valandos ir 8 minutes, ne 23:08 UTC
Prognozė galioja nuo 17 metu 00 UTC su 17 metu 24 UTC
Vėjas 15 kt iš Rytų su gūsio iki 25 kt
Matomumas 10 km arba daugiau
nėra debesų žemiau 1500 m ir nėra kamuolinių lietaus debesų
Tapsmas
nuo 17 metu 02 UTC su 17 metu 03 UTC
Vėjas 10 kt iš Rytų
Matomumas 10 km arba daugiau
nėra debesų žemiau 1500 m ir nėra kamuolinių lietaus debesų

TAF: YBAS 162308Z 1700/1724 10015G25KT CAVOK BECMG 1702/1703 09010KT CAVOK

Orai ataskaitas ir orų prognozės (METAR, TAF).

turimą stotys yra geltonos ir raudonos taškus žemėlapyje.

Perkelti pele per norėdami pamatyti stoties vardą.

Tada spustelėkite, norėdami matyti oro stebėjimo ir prognozės.

Norėdami pakeisti žemėlapį: spustelėkite ant žalios mygtukų su juodo kryžiaus žemyn,; žalią mygtuką su brūkšneliu, jei norite nutolinti; arba žalių rodyklių gretimoms žemėlapius.


METAR-TAF: